sensor_id;sensor_type;location;lat;lon;timestamp;pressure;altitude;pressure_sealevel;temperature;humidity
70909;BME280;58554;52.006;5.926;2023-04-09T00:01:15;101790.22;;;9.04;73.65
70909;BME280;58554;52.006;5.926;2023-04-09T00:03:41;101795.41;;;9.06;73.55
70909;BME280;58554;52.006;5.926;2023-04-09T00:06:10;101788.38;;;9.06;73.65
70909;BME280;58554;52.006;5.926;2023-04-09T00:08:37;101796.22;;;9.08;73.40
70909;BME280;58554;52.006;5.926;2023-04-09T00:11:03;101791.88;;;9.07;73.46
70909;BME280;58554;52.006;5.926;2023-04-09T00:13:30;101787.63;;;9.03;73.52
70909;BME280;58554;52.006;5.926;2023-04-09T00:15:57;101785.06;;;9.00;73.55
70909;BME280;58554;52.006;5.926;2023-04-09T00:18:26;101780.72;;;8.99;73.65
70909;BME280;58554;52.006;5.926;2023-04-09T00:20:52;101785.16;;;8.98;73.83
70909;BME280;58554;52.006;5.926;2023-04-09T00:23:19;101781.69;;;8.96;73.65
70909;BME280;58554;52.006;5.926;2023-04-09T00:25:45;101778.13;;;8.97;73.51
70909;BME280;58554;52.006;5.926;2023-04-09T00:28:12;101775.63;;;8.94;73.89
70909;BME280;58554;52.006;5.926;2023-04-09T00:30:38;101779.97;;;8.95;74.01
70909;BME280;58554;52.006;5.926;2023-04-09T00:33:05;101775.50;;;8.97;73.88
70909;BME280;58554;52.006;5.926;2023-04-09T00:35:34;101776.34;;;8.98;73.96
70909;BME280;58554;52.006;5.926;2023-04-09T00:38:00;101768.44;;;8.98;73.85
70909;BME280;58554;52.006;5.926;2023-04-09T00:40:27;101773.63;;;9.01;74.08
70909;BME280;58554;52.006;5.926;2023-04-09T00:42:54;101767.50;;;9.00;73.96
70909;BME280;58554;52.006;5.926;2023-04-09T00:45:20;101764.91;;;8.99;73.88
70909;BME280;58554;52.006;5.926;2023-04-09T00:47:47;101767.53;;;8.99;73.92
70909;BME280;58554;52.006;5.926;2023-04-09T00:50:13;101770.16;;;8.99;73.95
70909;BME280;58554;52.006;5.926;2023-04-09T00:52:44;101764.03;;;8.98;73.97
70909;BME280;58554;52.006;5.926;2023-04-09T00:55:11;101763.16;;;8.98;74.01
70909;BME280;58554;52.006;5.926;2023-04-09T00:57:38;101762.31;;;8.97;73.96
70909;BME280;58554;52.006;5.926;2023-04-09T01:00:07;101761.44;;;8.97;74.01
70909;BME280;58554;52.006;5.926;2023-04-09T01:02:34;101759.72;;;8.96;74.18
70909;BME280;58554;52.006;5.926;2023-04-09T01:05:01;101752.72;;;8.95;74.01
70909;BME280;58554;52.006;5.926;2023-04-09T01:07:39;101751.00;;;8.93;74.15
70909;BME280;58554;52.006;5.926;2023-04-09T01:10:24;101752.78;;;8.93;74.15
70909;BME280;58554;52.006;5.926;2023-04-09T01:13:06;101753.69;;;8.92;74.42
70909;BME280;58554;52.006;5.926;2023-04-09T01:15:43;101746.72;;;8.89;74.44
70909;BME280;58554;52.006;5.926;2023-04-09T01:18:18;101741.53;;;8.88;74.24
70909;BME280;58554;52.006;5.926;2023-04-09T01:20:57;101749.50;;;8.86;74.56
70909;BME280;58554;52.006;5.926;2023-04-09T01:23:41;101744.25;;;8.85;74.45
70909;BME280;58554;52.006;5.926;2023-04-09T01:26:30;101751.19;;;8.87;74.49
70909;BME280;58554;52.006;5.926;2023-04-09T01:29:14;101745.94;;;8.87;74.56
70909;BME280;58554;52.006;5.926;2023-04-09T01:31:45;101748.63;;;8.86;74.35
70909;BME280;58554;52.006;5.926;2023-04-09T01:34:15;101752.13;;;8.86;74.62
70909;BME280;58554;52.006;5.926;2023-04-09T01:36:46;101749.63;;;8.83;74.57
70909;BME280;58554;52.006;5.926;2023-04-09T01:39:17;101750.47;;;8.84;74.67
70909;BME280;58554;52.006;5.926;2023-04-09T01:41:45;101747.81;;;8.84;74.59
70909;BME280;58554;52.006;5.926;2023-04-09T01:44:17;101742.56;;;8.84;74.63
70909;BME280;58554;52.006;5.926;2023-04-09T01:46:45;101738.19;;;8.83;74.57
70909;BME280;58554;52.006;5.926;2023-04-09T01:49:13;101743.53;;;8.81;74.71
70909;BME280;58554;52.006;5.926;2023-04-09T01:51:41;101753.25;;;8.79;74.87
70909;BME280;58554;52.006;5.926;2023-04-09T01:54:08;101746.22;;;8.80;74.96
70909;BME280;58554;52.006;5.926;2023-04-09T01:56:41;101743.63;;;8.78;74.94
70909;BME280;58554;52.006;5.926;2023-04-09T01:59:09;101739.28;;;8.77;75.02
70909;BME280;58554;52.006;5.926;2023-04-09T02:01:43;101739.28;;;8.77;74.91
70909;BME280;58554;52.006;5.926;2023-04-09T02:04:19;101741.94;;;8.76;74.92
70909;BME280;58554;52.006;5.926;2023-04-09T02:06:56;101742.81;;;8.76;74.92
70909;BME280;58554;52.006;5.926;2023-04-09T02:09:31;101746.28;;;8.77;75.04
70909;BME280;58554;52.006;5.926;2023-04-09T02:12:03;101740.22;;;8.75;75.05
70909;BME280;58554;52.006;5.926;2023-04-09T02:14:32;101741.09;;;8.75;75.07
70909;BME280;58554;52.006;5.926;2023-04-09T02:17:05;101743.63;;;8.78;75.15
70909;BME280;58554;52.006;5.926;2023-04-09T02:19:39;101740.13;;;8.78;75.38
70909;BME280;58554;52.006;5.926;2023-04-09T02:22:06;101737.53;;;8.76;75.30
70909;BME280;58554;52.006;5.926;2023-04-09T02:24:32;101734.00;;;8.77;75.26
70909;BME280;58554;52.006;5.926;2023-04-09T02:27:01;101727.84;;;8.77;75.37
70909;BME280;58554;52.006;5.926;2023-04-09T02:29:27;101734.03;;;8.76;75.41
70909;BME280;58554;52.006;5.926;2023-04-09T02:31:55;101732.25;;;8.76;75.42
70909;BME280;58554;52.006;5.926;2023-04-09T02:34:27;101727.78;;;8.78;75.49
70909;BME280;58554;52.006;5.926;2023-04-09T02:36:53;101732.16;;;8.79;75.29
70909;BME280;58554;52.006;5.926;2023-04-09T02:39:20;101730.44;;;8.78;75.29
70909;BME280;58554;52.006;5.926;2023-04-09T02:41:47;101726.94;;;8.78;75.49
70909;BME280;58554;52.006;5.926;2023-04-09T02:44:13;101726.00;;;8.79;75.54
70909;BME280;58554;52.006;5.926;2023-04-09T02:46:40;101717.25;;;8.78;75.57
70909;BME280;58554;52.006;5.926;2023-04-09T02:49:07;101715.53;;;8.77;75.20
70909;BME280;58554;52.006;5.926;2023-04-09T02:51:36;101713.84;;;8.75;75.35
70909;BME280;58554;52.006;5.926;2023-04-09T02:54:03;101710.34;;;8.74;75.31
70909;BME280;58554;52.006;5.926;2023-04-09T02:56:29;101705.13;;;8.72;75.32
70909;BME280;58554;52.006;5.926;2023-04-09T02:58:56;101709.50;;;8.73;75.52
70909;BME280;58554;52.006;5.926;2023-04-09T03:01:23;101710.47;;;8.71;75.36
70909;BME280;58554;52.006;5.926;2023-04-09T03:03:49;101710.47;;;8.71;75.47
70909;BME280;58554;52.006;5.926;2023-04-09T03:06:17;101706.91;;;8.72;75.59
70909;BME280;58554;52.006;5.926;2023-04-09T03:08:46;101711.28;;;8.73;75.51
70909;BME280;58554;52.006;5.926;2023-04-09T03:11:12;101713.03;;;8.72;75.60
70909;BME280;58554;52.006;5.926;2023-04-09T03:13:39;101708.69;;;8.71;75.61
70909;BME280;58554;52.006;5.926;2023-04-09T03:16:06;101709.53;;;8.72;75.39
70909;BME280;58554;52.006;5.926;2023-04-09T03:18:33;101706.09;;;8.70;75.52
70909;BME280;58554;52.006;5.926;2023-04-09T03:21:04;101710.41;;;8.72;75.49
70909;BME280;58554;52.006;5.926;2023-04-09T03:23:31;101702.66;;;8.68;75.42
70909;BME280;58554;52.006;5.926;2023-04-09T03:26:04;101707.91;;;8.68;75.63
70909;BME280;58554;52.006;5.926;2023-04-09T03:28:31;101711.53;;;8.65;75.49
70909;BME280;58554;52.006;5.926;2023-04-09T03:31:00;101699.31;;;8.63;75.52
70909;BME280;58554;52.006;5.926;2023-04-09T03:33:26;101703.72;;;8.62;75.50
70909;BME280;58554;52.006;5.926;2023-04-09T03:35:53;101699.38;;;8.61;75.59
70909;BME280;58554;52.006;5.926;2023-04-09T03:38:19;101697.59;;;8.62;75.40
70909;BME280;58554;52.006;5.926;2023-04-09T03:40:46;101694.06;;;8.63;75.42
70909;BME280;58554;52.006;5.926;2023-04-09T03:43:15;101696.72;;;8.61;75.50
70909;BME280;58554;52.006;5.926;2023-04-09T03:45:41;101692.34;;;8.60;75.44
70909;BME280;58554;52.006;5.926;2023-04-09T03:48:08;101693.28;;;8.59;75.62
70909;BME280;58554;52.006;5.926;2023-04-09T03:50:37;101690.69;;;8.58;75.51
70909;BME280;58554;52.006;5.926;2023-04-09T03:53:04;101691.66;;;8.55;75.52
70909;BME280;58554;52.006;5.926;2023-04-09T03:55:30;101684.66;;;8.54;75.53
70909;BME280;58554;52.006;5.926;2023-04-09T03:57:57;101689.06;;;8.53;75.42
70909;BME280;58554;52.006;5.926;2023-04-09T04:00:26;101683.84;;;8.52;75.45
70909;BME280;58554;52.006;5.926;2023-04-09T04:02:53;101690.00;;;8.52;75.62
70909;BME280;58554;52.006;5.926;2023-04-09T04:05:22;101691.66;;;8.55;75.48
70909;BME280;58554;52.006;5.926;2023-04-09T04:07:49;101683.84;;;8.52;75.60
70909;BME280;58554;52.006;5.926;2023-04-09T04:10:16;101683.97;;;8.49;75.46
70909;BME280;58554;52.006;5.926;2023-04-09T04:12:42;101682.13;;;8.51;75.41
70909;BME280;58554;52.006;5.926;2023-04-09T04:15:09;101686.59;;;8.49;75.45
70909;BME280;58554;52.006;5.926;2023-04-09T04:17:39;101687.56;;;8.46;75.72
70909;BME280;58554;52.006;5.926;2023-04-09T04:20:07;101686.72;;;8.46;75.71
70909;BME280;58554;52.006;5.926;2023-04-09T04:22:34;101681.50;;;8.44;75.50
70909;BME280;58554;52.006;5.926;2023-04-09T04:25:01;101682.50;;;8.40;75.71
70909;BME280;58554;52.006;5.926;2023-04-09T04:27:28;101689.56;;;8.40;75.83
70909;BME280;58554;52.006;5.926;2023-04-09T04:29:56;101686.13;;;8.38;75.70
70909;BME280;58554;52.006;5.926;2023-04-09T04:32:23;101685.22;;;8.37;75.58
70909;BME280;58554;52.006;5.926;2023-04-09T04:34:52;101685.31;;;8.36;75.72
70909;BME280;58554;52.006;5.926;2023-04-09T04:37:18;101690.56;;;8.36;75.66
70909;BME280;58554;52.006;5.926;2023-04-09T04:39:45;101681.84;;;8.34;75.72
70909;BME280;58554;52.006;5.926;2023-04-09T04:42:11;101690.66;;;8.32;75.64
70909;BME280;58554;52.006;5.926;2023-04-09T04:44:38;101693.41;;;8.29;75.84
70909;BME280;58554;52.006;5.926;2023-04-09T04:47:04;101694.44;;;8.25;75.54
70909;BME280;58554;52.006;5.926;2023-04-09T04:49:31;101698.91;;;8.22;75.67
70909;BME280;58554;52.006;5.926;2023-04-09T04:52:00;101694.63;;;8.19;75.67
70909;BME280;58554;52.006;5.926;2023-04-09T04:54:26;101699.13;;;8.16;75.43
70909;BME280;58554;52.006;5.926;2023-04-09T04:56:53;101697.50;;;8.11;75.48
70909;BME280;58554;52.006;5.926;2023-04-09T04:59:20;101690.59;;;8.07;75.42
70909;BME280;58554;52.006;5.926;2023-04-09T05:01:48;101695.06;;;8.05;75.44
70909;BME280;58554;52.006;5.926;2023-04-09T05:04:14;101695.09;;;8.04;75.55
70909;BME280;58554;52.006;5.926;2023-04-09T05:06:41;101697.81;;;8.02;75.23
70909;BME280;58554;52.006;5.926;2023-04-09T05:09:10;101692.75;;;7.95;75.17
70909;BME280;58554;52.006;5.926;2023-04-09T05:11:36;101692.16;;;7.86;75.06
70909;BME280;58554;52.006;5.926;2023-04-09T05:14:03;101695.97;;;7.76;74.89
70909;BME280;58554;52.006;5.926;2023-04-09T05:16:29;101690.03;;;7.69;75.01
70909;BME280;58554;52.006;5.926;2023-04-09T05:18:56;101687.63;;;7.62;75.19
70909;BME280;58554;52.006;5.926;2023-04-09T05:21:23;101679.09;;;7.54;74.99
70909;BME280;58554;52.006;5.926;2023-04-09T05:23:49;101684.50;;;7.49;75.15
70909;BME280;58554;52.006;5.926;2023-04-09T05:26:19;101692.50;;;7.46;75.15
70909;BME280;58554;52.006;5.926;2023-04-09T05:28:45;101696.06;;;7.43;75.48
70909;BME280;58554;52.006;5.926;2023-04-09T05:31:12;101699.72;;;7.38;75.29
70909;BME280;58554;52.006;5.926;2023-04-09T05:33:38;101702.38;;;7.36;75.27
70909;BME280;58554;52.006;5.926;2023-04-09T05:36:05;101693.75;;;7.31;75.62
70909;BME280;58554;52.006;5.926;2023-04-09T05:38:35;101698.25;;;7.27;75.50
70909;BME280;58554;52.006;5.926;2023-04-09T05:41:01;101699.19;;;7.25;75.40
70909;BME280;58554;52.006;5.926;2023-04-09T05:43:31;101693.09;;;7.23;75.55
70909;BME280;58554;52.006;5.926;2023-04-09T05:46:01;101701.91;;;7.22;75.47
70909;BME280;58554;52.006;5.926;2023-04-09T05:48:28;101699.28;;;7.22;75.62
70909;BME280;58554;52.006;5.926;2023-04-09T05:50:54;101702.78;;;7.22;75.42
70909;BME280;58554;52.006;5.926;2023-04-09T05:53:22;101703.63;;;7.23;75.54
70909;BME280;58554;52.006;5.926;2023-04-09T05:55:51;101712.41;;;7.23;75.54
70909;BME280;58554;52.006;5.926;2023-04-09T05:58:20;101700.00;;;7.27;75.29
70909;BME280;58554;52.006;5.926;2023-04-09T06:00:49;101696.44;;;7.29;75.27
70909;BME280;58554;52.006;5.926;2023-04-09T06:03:18;101697.31;;;7.30;75.28
70909;BME280;58554;52.006;5.926;2023-04-09T06:05:44;101696.34;;;7.32;75.29
70909;BME280;58554;52.006;5.926;2023-04-09T06:08:11;101697.13;;;7.36;75.27
70909;BME280;58554;52.006;5.926;2023-04-09T06:10:37;101689.97;;;7.41;75.10
70909;BME280;58554;52.006;5.926;2023-04-09T06:13:04;101693.44;;;7.43;75.28
70909;BME280;58554;52.006;5.926;2023-04-09T06:15:31;101695.13;;;7.46;75.20
70909;BME280;58554;52.006;5.926;2023-04-09T06:18:00;101700.31;;;7.47;75.00
70909;BME280;58554;52.006;5.926;2023-04-09T06:20:26;101688.97;;;7.45;75.02
70909;BME280;58554;52.006;5.926;2023-04-09T06:22:53;101700.41;;;7.46;75.10
70909;BME280;58554;52.006;5.926;2023-04-09T06:25:19;101700.31;;;7.47;74.72
70909;BME280;58554;52.006;5.926;2023-04-09T06:27:46;101699.44;;;7.48;75.06
70909;BME280;58554;52.006;5.926;2023-04-09T06:30:12;101702.78;;;7.54;74.92
70909;BME280;58554;52.006;5.926;2023-04-09T06:32:39;101699.19;;;7.56;74.63
70909;BME280;58554;52.006;5.926;2023-04-09T06:35:09;101701.78;;;7.58;74.81
70909;BME280;58554;52.006;5.926;2023-04-09T06:37:35;101700.00;;;7.58;74.64
70909;BME280;58554;52.006;5.926;2023-04-09T06:40:02;101707.00;;;7.59;74.53
70909;BME280;58554;52.006;5.926;2023-04-09T06:42:28;101709.53;;;7.62;74.67
70909;BME280;58554;52.006;5.926;2023-04-09T06:44:55;101711.13;;;7.68;74.47
70909;BME280;58554;52.006;5.926;2023-04-09T06:47:21;101712.69;;;7.75;74.65
70909;BME280;58554;52.006;5.926;2023-04-09T06:49:48;101722.22;;;7.79;74.27
70909;BME280;58554;52.006;5.926;2023-04-09T06:52:17;101716.84;;;7.82;74.23
70909;BME280;58554;52.006;5.926;2023-04-09T06:54:43;101719.41;;;7.85;74.12
70909;BME280;58554;52.006;5.926;2023-04-09T06:57:10;101714.13;;;7.85;74.09
70909;BME280;58554;52.006;5.926;2023-04-09T06:59:36;101713.09;;;7.89;73.94
70909;BME280;58554;52.006;5.926;2023-04-09T07:02:03;101709.38;;;7.97;74.18
70909;BME280;58554;52.006;5.926;2023-04-09T07:04:29;101713.50;;;8.05;73.91
70909;BME280;58554;52.006;5.926;2023-04-09T07:06:56;101716.78;;;8.12;73.75
70909;BME280;58554;52.006;5.926;2023-04-09T07:09:25;101719.31;;;8.17;73.75
70909;BME280;58554;52.006;5.926;2023-04-09T07:11:52;101713.88;;;8.21;73.61
70909;BME280;58554;52.006;5.926;2023-04-09T07:14:18;101711.97;;;8.25;73.59
70909;BME280;58554;52.006;5.926;2023-04-09T07:16:45;101711.78;;;8.31;73.45
70909;BME280;58554;52.006;5.926;2023-04-09T07:19:11;101711.53;;;8.39;73.57
70909;BME280;58554;52.006;5.926;2023-04-09T07:21:38;101710.53;;;8.43;73.41
70909;BME280;58554;52.006;5.926;2023-04-09T07:24:05;101713.06;;;8.46;73.26
70909;BME280;58554;52.006;5.926;2023-04-09T07:26:34;101711.13;;;8.51;73.12
70909;BME280;58554;52.006;5.926;2023-04-09T07:29:01;101713.44;;;8.60;73.12
70909;BME280;58554;52.006;5.926;2023-04-09T07:31:29;101713.97;;;8.71;73.11
70909;BME280;58554;52.006;5.926;2023-04-09T07:33:56;101710.09;;;8.82;72.79
70909;BME280;58554;52.006;5.926;2023-04-09T07:36:22;101711.59;;;8.89;72.50
70909;BME280;58554;52.006;5.926;2023-04-09T07:38:49;101720.94;;;8.98;72.40
70909;BME280;58554;52.006;5.926;2023-04-09T07:41:15;101715.53;;;9.02;72.09
70909;BME280;58554;52.006;5.926;2023-04-09T07:43:44;101715.31;;;9.08;71.87
70909;BME280;58554;52.006;5.926;2023-04-09T07:46:17;101721.19;;;9.17;71.69
70909;BME280;58554;52.006;5.926;2023-04-09T07:48:44;101722.72;;;9.22;71.71
70909;BME280;58554;52.006;5.926;2023-04-09T07:51:10;101721.63;;;9.28;71.63
70909;BME280;58554;52.006;5.926;2023-04-09T07:53:37;101724.13;;;9.32;71.45
70909;BME280;58554;52.006;5.926;2023-04-09T07:56:04;101723.97;;;9.37;71.54
70909;BME280;58554;52.006;5.926;2023-04-09T07:58:31;101719.44;;;9.41;71.41
70909;BME280;58554;52.006;5.926;2023-04-09T08:01:01;101726.22;;;9.48;71.28
70909;BME280;58554;52.006;5.926;2023-04-09T08:03:27;101729.50;;;9.55;70.86
70909;BME280;58554;52.006;5.926;2023-04-09T08:05:54;101727.53;;;9.60;70.79
70909;BME280;58554;52.006;5.926;2023-04-09T08:08:20;101724.69;;;9.64;70.81
70909;BME280;58554;52.006;5.926;2023-04-09T08:10:47;101721.03;;;9.68;70.63
70909;BME280;58554;52.006;5.926;2023-04-09T08:13:13;101722.63;;;9.72;70.43
70909;BME280;58554;52.006;5.926;2023-04-09T08:15:40;101725.13;;;9.77;70.50
70909;BME280;58554;52.006;5.926;2023-04-09T08:18:09;101718.81;;;9.81;70.32
70909;BME280;58554;52.006;5.926;2023-04-09T08:20:35;101723.09;;;9.84;70.12
70909;BME280;58554;52.006;5.926;2023-04-09T08:23:02;101714.84;;;9.91;70.12
70909;BME280;58554;52.006;5.926;2023-04-09T08:25:28;101716.28;;;10.00;70.29
70909;BME280;58554;52.006;5.926;2023-04-09T08:27:55;101713.41;;;10.06;69.96
70909;BME280;58554;52.006;5.926;2023-04-09T08:30:21;101720.41;;;10.07;69.23
70909;BME280;58554;52.006;5.926;2023-04-09T08:32:48;101719.41;;;10.10;69.23
70909;BME280;58554;52.006;5.926;2023-04-09T08:35:17;101722.66;;;10.17;69.24
70909;BME280;58554;52.006;5.926;2023-04-09T08:37:44;101720.72;;;10.22;68.97
70909;BME280;58554;52.006;5.926;2023-04-09T08:40:10;101726.66;;;10.27;68.70
70909;BME280;58554;52.006;5.926;2023-04-09T08:42:39;101731.69;;;10.33;68.32
70909;BME280;58554;52.006;5.926;2023-04-09T08:45:11;101733.19;;;10.40;68.36
70909;BME280;58554;52.006;5.926;2023-04-09T08:47:39;101723.06;;;10.50;68.16
70909;BME280;58554;52.006;5.926;2023-04-09T08:50:09;101719.19;;;10.59;67.58
70909;BME280;58554;52.006;5.926;2023-04-09T08:52:39;101726.66;;;10.69;67.44
70909;BME280;58554;52.006;5.926;2023-04-09T08:55:07;101723.63;;;10.79;67.34
70909;BME280;58554;52.006;5.926;2023-04-09T08:57:40;101722.50;;;10.84;67.25
70909;BME280;58554;52.006;5.926;2023-04-09T09:00:07;101722.13;;;10.93;66.96
70909;BME280;58554;52.006;5.926;2023-04-09T09:02:34;101716.56;;;11.00;66.59
70909;BME280;58554;52.006;5.926;2023-04-09T09:05:03;101712.84;;;11.04;66.41
70909;BME280;58554;52.006;5.926;2023-04-09T09:07:30;101707.28;;;11.10;66.66
70909;BME280;58554;52.006;5.926;2023-04-09T09:10:01;101700.16;;;11.12;66.64
70909;BME280;58554;52.006;5.926;2023-04-09T09:12:31;101705.16;;;11.18;66.55
70909;BME280;58554;52.006;5.926;2023-04-09T09:15:00;101703.88;;;11.27;66.54
70909;BME280;58554;52.006;5.926;2023-04-09T09:17:26;101695.81;;;11.30;66.41
70909;BME280;58554;52.006;5.926;2023-04-09T09:19:53;101693.91;;;11.33;66.05
70909;BME280;58554;52.006;5.926;2023-04-09T09:22:19;101699.03;;;11.37;65.51
70909;BME280;58554;52.006;5.926;2023-04-09T09:24:49;101697.19;;;11.39;65.40
70909;BME280;58554;52.006;5.926;2023-04-09T09:27:33;101688.16;;;11.43;64.77
70909;BME280;58554;52.006;5.926;2023-04-09T09:30:02;101690.59;;;11.47;64.56
70909;BME280;58554;52.006;5.926;2023-04-09T09:32:29;101685.03;;;11.53;64.00
70909;BME280;58554;52.006;5.926;2023-04-09T09:35:03;101691.66;;;11.62;63.48
70909;BME280;58554;52.006;5.926;2023-04-09T09:37:32;101692.16;;;11.70;63.01
70909;BME280;58554;52.006;5.926;2023-04-09T09:39:59;101695.31;;;11.79;63.13
70909;BME280;58554;52.006;5.926;2023-04-09T09:42:26;101685.38;;;11.84;62.71
70909;BME280;58554;52.006;5.926;2023-04-09T09:44:55;101690.44;;;11.88;62.69
70909;BME280;58554;52.006;5.926;2023-04-09T09:47:23;101680.63;;;11.90;61.95
70909;BME280;58554;52.006;5.926;2023-04-09T09:49:51;101688.34;;;11.95;62.01
70909;BME280;58554;52.006;5.926;2023-04-09T09:52:20;101693.44;;;12.00;61.85
70909;BME280;58554;52.006;5.926;2023-04-09T09:54:51;101696.78;;;12.03;61.51
70909;BME280;58554;52.006;5.926;2023-04-09T09:57:20;101685.28;;;12.04;61.22
70909;BME280;58554;52.006;5.926;2023-04-09T09:59:58;101686.84;;;12.08;60.71
70909;BME280;58554;52.006;5.926;2023-04-09T10:02:27;101685.81;;;12.11;60.92
70909;BME280;58554;52.006;5.926;2023-04-09T10:05:05;101681.22;;;12.14;60.77
70909;BME280;58554;52.006;5.926;2023-04-09T10:07:34;101692.53;;;12.18;60.77
70909;BME280;58554;52.006;5.926;2023-04-09T10:10:04;101680.78;;;12.24;60.74
70909;BME280;58554;52.006;5.926;2023-04-09T10:12:33;101680.44;;;12.31;60.50
70909;BME280;58554;52.006;5.926;2023-04-09T10:15:03;101671.16;;;12.40;60.46
70909;BME280;58554;52.006;5.926;2023-04-09T10:17:30;101671.69;;;12.47;60.13
70909;BME280;58554;52.006;5.926;2023-04-09T10:20:03;101669.50;;;12.55;60.03
70909;BME280;58554;52.006;5.926;2023-04-09T10:22:35;101662.72;;;12.67;60.15
70909;BME280;58554;52.006;5.926;2023-04-09T10:25:03;101648.78;;;12.79;60.00
70909;BME280;58554;52.006;5.926;2023-04-09T10:27:31;101650.13;;;12.88;59.37
70909;BME280;58554;52.006;5.926;2023-04-09T10:29:57;101655.88;;;12.96;58.41
70909;BME280;58554;52.006;5.926;2023-04-09T10:32:33;101644.69;;;13.07;58.83
70909;BME280;58554;52.006;5.926;2023-04-09T10:35:02;101652.00;;;13.19;59.16
70909;BME280;58554;52.006;5.926;2023-04-09T10:37:29;101638.03;;;13.31;58.79
70909;BME280;58554;52.006;5.926;2023-04-09T10:39:56;101642.56;;;13.45;58.70
70909;BME280;58554;52.006;5.926;2023-04-09T10:42:28;101641.47;;;13.49;57.58
70909;BME280;58554;52.006;5.926;2023-04-09T10:45:06;101640.34;;;13.53;57.43
70909;BME280;58554;52.006;5.926;2023-04-09T10:47:38;101626.59;;;13.63;57.87
70909;BME280;58554;52.006;5.926;2023-04-09T10:50:17;101631.38;;;13.72;57.03
70909;BME280;58554;52.006;5.926;2023-04-09T10:52:45;101626.31;;;13.67;57.21
70909;BME280;58554;52.006;5.926;2023-04-09T10:55:31;101629.16;;;13.64;57.04
70909;BME280;58554;52.006;5.926;2023-04-09T10:57:59;101623.25;;;13.75;57.06
70909;BME280;58554;52.006;5.926;2023-04-09T11:00:26;101622.44;;;13.89;56.56
70909;BME280;58554;52.006;5.926;2023-04-09T11:03:26;101630.75;;;13.98;54.33
70909;BME280;58554;52.006;5.926;2023-04-09T11:05:58;101620.38;;;13.94;55.46
70909;BME280;58554;52.006;5.926;2023-04-09T11:08:30;101613.69;;;13.87;55.64
70909;BME280;58554;52.006;5.926;2023-04-09T11:10:59;101612.16;;;13.83;55.21
70909;BME280;58554;52.006;5.926;2023-04-09T11:13:29;101603.50;;;13.79;55.55
70909;BME280;58554;52.006;5.926;2023-04-09T11:15:57;101605.38;;;13.77;55.08
70909;BME280;58554;52.006;5.926;2023-04-09T11:18:29;101602.06;;;13.73;55.02
70909;BME280;58554;52.006;5.926;2023-04-09T11:20:57;101608.50;;;13.69;54.94
70909;BME280;58554;52.006;5.926;2023-04-09T11:23:25;101597.78;;;13.71;54.96
70909;BME280;58554;52.006;5.926;2023-04-09T11:25:56;101597.50;;;13.75;54.76
70909;BME280;58554;52.006;5.926;2023-04-09T11:28:23;101588.50;;;13.78;54.36
70909;BME280;58554;52.006;5.926;2023-04-09T11:30:51;101590.97;;;13.81;54.22
70909;BME280;58554;52.006;5.926;2023-04-09T11:33:18;101590.19;;;13.79;54.13
70909;BME280;58554;52.006;5.926;2023-04-09T11:35:48;101591.16;;;13.78;53.69
70909;BME280;58554;52.006;5.926;2023-04-09T11:38:17;101598.28;;;13.77;53.42
70909;BME280;58554;52.006;5.926;2023-04-09T11:40:44;101592.09;;;13.77;53.49
70909;BME280;58554;52.006;5.926;2023-04-09T11:43:10;101588.41;;;13.80;53.05
70909;BME280;58554;52.006;5.926;2023-04-09T11:45:37;101588.16;;;13.84;52.96
70909;BME280;58554;52.006;5.926;2023-04-09T11:48:04;101586.25;;;13.86;52.97
70909;BME280;58554;52.006;5.926;2023-04-09T11:50:32;101590.53;;;13.89;53.23
70909;BME280;58554;52.006;5.926;2023-04-09T11:53:14;101589.31;;;13.94;52.74
70909;BME280;58554;52.006;5.926;2023-04-09T11:55:46;101595.34;;;13.98;52.78
70909;BME280;58554;52.006;5.926;2023-04-09T11:58:15;101594.28;;;14.01;52.90
70909;BME280;58554;52.006;5.926;2023-04-09T12:00:42;101603.03;;;14.03;52.57
70909;BME280;58554;52.006;5.926;2023-04-09T12:03:09;101601.06;;;14.06;51.91
70909;BME280;58554;52.006;5.926;2023-04-09T12:05:35;101602.75;;;14.07;52.08
70909;BME280;58554;52.006;5.926;2023-04-09T12:08:07;101595.63;;;14.08;51.94
70909;BME280;58554;52.006;5.926;2023-04-09T12:10:34;101593.84;;;14.08;51.60
70909;BME280;58554;52.006;5.926;2023-04-09T12:13:05;101591.84;;;14.12;51.56
70909;BME280;58554;52.006;5.926;2023-04-09T12:15:34;101594.06;;;14.20;51.50
70909;BME280;58554;52.006;5.926;2023-04-09T12:18:01;101587.53;;;14.25;51.63
70909;BME280;58554;52.006;5.926;2023-04-09T12:20:31;101580.31;;;14.27;51.22
70909;BME280;58554;52.006;5.926;2023-04-09T12:23:00;101574.97;;;14.27;51.35
70909;BME280;58554;52.006;5.926;2023-04-09T12:25:32;101575.06;;;14.26;51.24
70909;BME280;58554;52.006;5.926;2023-04-09T12:28:01;101589.91;;;14.30;51.36
70909;BME280;58554;52.006;5.926;2023-04-09T12:30:28;101597.50;;;14.36;51.02
70909;BME280;58554;52.006;5.926;2023-04-09T12:32:55;101590.84;;;14.43;50.82
70909;BME280;58554;52.006;5.926;2023-04-09T12:35:22;101577.19;;;14.49;50.87
70909;BME280;58554;52.006;5.926;2023-04-09T12:37:49;101583.75;;;14.58;50.65
70909;BME280;58554;52.006;5.926;2023-04-09T12:40:19;101572.84;;;14.63;50.58
70909;BME280;58554;52.006;5.926;2023-04-09T12:42:49;101568.94;;;14.68;50.67
70909;BME280;58554;52.006;5.926;2023-04-09T12:45:18;101566.88;;;14.73;50.98
70909;BME280;58554;52.006;5.926;2023-04-09T12:47:45;101563.25;;;14.74;50.96
70909;BME280;58554;52.006;5.926;2023-04-09T12:50:12;101564.13;;;14.75;50.94
70909;BME280;58554;52.006;5.926;2023-04-09T12:52:39;101558.59;;;14.78;50.94
70909;BME280;58554;52.006;5.926;2023-04-09T12:55:07;101566.97;;;14.86;50.70
70909;BME280;58554;52.006;5.926;2023-04-09T12:57:36;101563.72;;;14.95;50.46
70909;BME280;58554;52.006;5.926;2023-04-09T13:00:07;101567.13;;;14.97;49.97
70909;BME280;58554;52.006;5.926;2023-04-09T13:02:34;101566.88;;;15.02;50.40
70909;BME280;58554;52.006;5.926;2023-04-09T13:05:02;101559.34;;;15.09;50.03